Time;durP1;ratioP1;P1;durP2;ratioP2;P2;SDS_P1;SDS_P2;PMS_P1;PMS_P2;Temp;Humidity;BMP_temperature;BMP_pressure;BME280_temperature;BME280_humidity;BME280_pressure;Samples;Min_cycle;Max_cycle;Signal;HPM_P1;HPM_P2
2023/10/09 00:00:55;;;;;;;6.22;4.13;;;;;;;;;;5054268;28;20471;-70
2023/10/09 00:03:23;;;;;;;8.48;4.22;;;;;;;;;;5077902;27;20425;-70
2023/10/09 00:05:52;;;;;;;9.50;6.13;;;;;;;;;;5159263;27;20038;-70
2023/10/09 00:08:30;;;;;;;8.07;4.80;;;;;;;;;;5159161;27;20404;-69
2023/10/09 00:10:57;;;;;;;6.50;5.00;;;;;;;;;;5159142;27;20065;-71
2023/10/09 00:13:29;;;;;;;8.85;5.25;;;;;;;;;;5159022;27;20045;-60
2023/10/09 00:15:59;;;;;;;8.63;5.35;;;;;;;;;;5159168;27;20039;-60
2023/10/09 00:18:29;;;;;;;8.15;4.55;;;;;;;;;;5159064;27;20035;-61
2023/10/09 00:21:00;;;;;;;6.88;4.43;;;;;;;;;;5159045;27;20031;-59
2023/10/09 00:23:25;;;;;;;6.60;4.75;;;;;;;;;;5159018;27;20043;-59
2023/10/09 00:26:11;;;;;;;7.40;4.20;;;;;;;;;;5159013;27;20084;-59
2023/10/09 00:28:46;;;;;;;8.98;5.38;;;;;;;;;;5158815;27;20567;-59
2023/10/09 00:31:15;;;;;;;9.65;5.57;;;;;;;;;;5158244;27;20053;-60
2023/10/09 00:33:44;;;;;;;7.68;4.78;;;;;;;;;;5159155;27;20085;-69
2023/10/09 00:36:09;;;;;;;6.07;5.22;;;;;;;;;;5158550;27;20113;-68
2023/10/09 00:38:46;;;;;;;8.00;5.40;;;;;;;;;;5139592;27;20096;-60
2023/10/09 00:41:19;;;;;;;6.63;4.93;;;;;;;;;;5158523;27;20081;-60
2023/10/09 00:43:44;;;;;;;8.20;5.15;;;;;;;;;;5123118;27;20038;-60
2023/10/09 00:46:23;;;;;;;7.40;5.05;;;;;;;;;;5158570;27;20050;-60
2023/10/09 00:48:51;;;;;;;9.52;5.57;;;;;;;;;;5158617;27;20519;-59
2023/10/09 00:51:18;;;;;;;8.13;5.15;;;;;;;;;;5158503;27;20054;-59
2023/10/09 00:53:51;;;;;;;10.10;6.10;;;;;;;;;;5139371;27;20058;-60
2023/10/09 00:58:55;;;;;;;10.95;6.40;;;;;;;;;;5139182;27;20079;-68
2023/10/09 01:01:26;;;;;;;11.10;6.72;;;;;;;;;;5139397;27;20087;-68
2023/10/09 01:03:51;;;;;;;8.75;6.05;;;;;;;;;;5158317;27;20413;-60
2023/10/09 01:06:20;;;;;;;10.43;6.30;;;;;;;;;;5139203;27;20102;-60
2023/10/09 01:08:56;;;;;;;10.77;6.53;;;;;;;;;;5139219;27;20563;-60
2023/10/09 01:11:23;;;;;;;13.30;7.45;;;;;;;;;;5139532;27;20117;-60
2023/10/09 01:13:52;;;;;;;9.45;6.35;;;;;;;;;;5138886;27;20148;-69
2023/10/09 01:16:21;;;;;;;11.02;6.75;;;;;;;;;;5157817;27;20030;-68
2023/10/09 01:18:49;;;;;;;12.40;7.22;;;;;;;;;;5157855;27;20039;-70
2023/10/09 01:21:15;;;;;;;12.18;7.28;;;;;;;;;;5157573;27;20349;-70
2023/10/09 01:23:58;;;;;;;11.98;6.68;;;;;;;;;;5139319;27;20041;-70
2023/10/09 01:26:24;;;;;;;13.95;7.07;;;;;;;;;;5139490;27;20035;-71
2023/10/09 01:28:50;;;;;;;12.05;6.93;;;;;;;;;;5157684;27;20031;-71
2023/10/09 01:31:15;;;;;;;9.50;6.50;;;;;;;;;;5157189;27;20488;-71
2023/10/09 01:33:41;;;;;;;13.43;7.40;;;;;;;;;;5157962;27;20031;-71
2023/10/09 01:36:09;;;;;;;10.13;6.55;;;;;;;;;;5157914;27;20039;-71
2023/10/09 01:38:41;;;;;;;12.55;6.80;;;;;;;;;;5121971;27;20420;-71
2023/10/09 01:41:15;;;;;;;10.80;6.75;;;;;;;;;;5139555;27;20449;-61
2023/10/09 01:43:44;;;;;;;8.52;6.10;;;;;;;;;;5139183;27;20042;-61
2023/10/09 01:46:11;;;;;;;10.73;6.25;;;;;;;;;;5138401;27;20034;-61
2023/10/09 01:48:39;;;;;;;9.65;6.03;;;;;;;;;;5157513;27;20031;-61
2023/10/09 01:51:05;;;;;;;9.13;6.15;;;;;;;;;;5156780;27;20031;-70
2023/10/09 01:53:30;;;;;;;10.38;6.38;;;;;;;;;;5157263;27;20469;-70
2023/10/09 01:55:58;;;;;;;12.52;6.35;;;;;;;;;;5138624;27;20370;-61
2023/10/09 01:58:27;;;;;;;12.02;6.38;;;;;;;;;;5157007;27;20029;-61
2023/10/09 02:00:55;;;;;;;9.18;6.15;;;;;;;;;;5138339;27;20034;-61
2023/10/09 02:03:25;;;;;;;11.32;6.60;;;;;;;;;;5138046;27;20037;-61
2023/10/09 02:06:03;;;;;;;11.85;7.15;;;;;;;;;;5137972;27;20078;-61
2023/10/09 02:08:29;;;;;;;11.30;6.40;;;;;;;;;;5155975;27;20510;-61
2023/10/09 02:10:56;;;;;;;12.30;6.95;;;;;;;;;;5156884;27;20068;-61
2023/10/09 02:13:29;;;;;;;9.98;6.47;;;;;;;;;;5156748;27;20039;-68
2023/10/09 02:16:28;;;;;;;11.75;6.85;;;;;;;;;;5138509;27;20062;-69
2023/10/09 02:18:58;;;;;;;10.32;6.10;;;;;;;;;;5138447;27;20046;-68
2023/10/09 02:21:33;;;;;;;8.98;6.43;;;;;;;;;;5156463;27;20042;-61
2023/10/09 02:24:04;;;;;;;11.70;6.63;;;;;;;;;;5137823;27;20043;-62
2023/10/09 02:29:14;;;;;;;8.50;5.93;;;;;;;;;;5156117;27;20050;-61
2023/10/09 02:31:46;;;;;;;10.20;6.30;;;;;;;;;;5120790;27;20121;-69
2023/10/09 02:34:12;;;;;;;9.65;5.82;;;;;;;;;;5156310;27;20043;-69
2023/10/09 02:36:41;;;;;;;9.57;5.82;;;;;;;;;;5138105;27;20034;-70
2023/10/09 02:39:12;;;;;;;10.82;5.80;;;;;;;;;;5156339;27;20122;-71
2023/10/09 02:41:49;;;;;;;9.02;5.85;;;;;;;;;;5156416;27;20062;-71
2023/10/09 02:44:15;;;;;;;10.52;6.03;;;;;;;;;;5156639;27;20045;-71
2023/10/09 02:46:40;;;;;;;11.50;5.75;;;;;;;;;;5156029;27;20477;-70
2023/10/09 02:49:06;;;;;;;9.77;5.80;;;;;;;;;;5137653;27;20053;-71
2023/10/09 02:51:41;;;;;;;8.82;5.72;;;;;;;;;;5156243;27;20704;-69
2023/10/09 02:54:27;;;;;;;9.35;6.25;;;;;;;;;;5137517;27;20060;-60
2023/10/09 02:59:31;;;;;;;8.90;5.80;;;;;;;;;;5156062;27;20072;-60
2023/10/09 03:01:59;;;;;;;9.00;6.30;;;;;;;;;;5137068;27;20081;-69
2023/10/09 03:04:31;;;;;;;9.35;5.85;;;;;;;;;;5155661;27;20079;-69
2023/10/09 03:07:03;;;;;;;8.80;5.75;;;;;;;;;;5136929;27;20554;-60
2023/10/09 03:09:29;;;;;;;7.93;5.38;;;;;;;;;;5155624;27;20440;-61
2023/10/09 03:12:00;;;;;;;8.05;5.50;;;;;;;;;;5137412;27;20035;-61
2023/10/09 03:14:26;;;;;;;9.45;5.55;;;;;;;;;;5137319;27;20033;-68
2023/10/09 03:16:59;;;;;;;7.95;5.25;;;;;;;;;;5137592;27;20031;-61
2023/10/09 03:19:28;;;;;;;8.63;5.35;;;;;;;;;;5155236;27;20055;-68
2023/10/09 03:21:54;;;;;;;8.88;5.50;;;;;;;;;;5154625;27;20373;-68
2023/10/09 03:24:22;;;;;;;12.18;5.60;;;;;;;;;;5155238;27;20031;-68
2023/10/09 03:26:48;;;;;;;10.52;5.93;;;;;;;;;;5156055;27;20070;-60
2023/10/09 03:29:14;;;;;;;8.35;6.00;;;;;;;;;;5155562;27;20457;-69
2023/10/09 03:31:39;;;;;;;11.73;5.93;;;;;;;;;;5155278;27;20038;-70
2023/10/09 03:34:05;;;;;;;12.35;6.07;;;;;;;;;;5136973;27;20126;-61
2023/10/09 03:36:30;;;;;;;11.18;6.43;;;;;;;;;;5155734;27;20038;-70
2023/10/09 03:38:59;;;;;;;12.52;6.10;;;;;;;;;;5155289;27;20019;-68
2023/10/09 03:41:29;;;;;;;12.00;7.22;;;;;;;;;;5155783;27;20065;-70
2023/10/09 03:43:54;;;;;;;10.40;6.07;;;;;;;;;;5136664;27;20042;-61
2023/10/09 03:46:27;;;;;;;9.30;5.95;;;;;;;;;;5155431;27;20022;-70
2023/10/09 03:48:56;;;;;;;12.68;6.88;;;;;;;;;;5136966;27;20047;-69
2023/10/09 03:51:21;;;;;;;19.27;8.50;;;;;;;;;;5099194;27;20045;-61
2023/10/09 03:53:47;;;;;;;24.35;9.35;;;;;;;;;;5050347;28;20044;-68
2023/10/09 03:56:12;;;;;;;32.63;10.65;;;;;;;;;;5050916;28;20116;-68
2023/10/09 03:58:39;;;;;;;32.90;10.13;;;;;;;;;;5032536;28;20033;-70
2023/10/09 04:01:11;;;;;;;28.15;9.50;;;;;;;;;;5046902;28;20041;-69
2023/10/09 04:03:38;;;;;;;24.08;9.60;;;;;;;;;;5050777;28;20485;-69
2023/10/09 04:06:05;;;;;;;13.25;6.75;;;;;;;;;;5032292;28;20048;-61
2023/10/09 04:08:33;;;;;;;16.30;7.45;;;;;;;;;;5045349;28;20041;-61
2023/10/09 04:11:02;;;;;;;20.45;9.05;;;;;;;;;;5028489;28;20138;-61
2023/10/09 04:13:34;;;;;;;20.45;8.60;;;;;;;;;;5030096;28;20034;-61
2023/10/09 04:16:28;;;;;;;15.82;7.40;;;;;;;;;;5030190;28;20038;-61
2023/10/09 04:18:56;;;;;;;13.68;6.28;;;;;;;;;;5012749;28;20109;-61
2023/10/09 04:21:34;;;;;;;12.13;6.13;;;;;;;;;;5029842;28;20046;-63
2023/10/09 04:24:10;;;;;;;13.70;6.75;;;;;;;;;;5029951;28;20068;-60
2023/10/09 04:26:37;;;;;;;12.13;6.88;;;;;;;;;;5025578;28;20084;-60
2023/10/09 04:29:03;;;;;;;12.77;7.03;;;;;;;;;;5010152;28;20133;-68
2023/10/09 04:31:32;;;;;;;13.02;6.57;;;;;;;;;;4994017;28;20033;-70
2023/10/09 04:36:49;;;;;;;18.05;10.13;;;;;;;;;;5013118;28;20030;-57
2023/10/09 04:39:36;;;;;;;25.50;16.92;;;;;;;;;;5013506;28;20038;-60
2023/10/09 04:42:36;;;;;;;51.85;29.83;;;;;;;;;;4995961;28;20038;-59
2023/10/09 04:47:36;;;;;;;62.65;36.25;;;;;;;;;;5013334;28;20045;-65
2023/10/09 04:50:11;;;;;;;43.95;27.88;;;;;;;;;;4995852;28;20068;-72
2023/10/09 05:00:22;;;;;;;43.38;23.17;;;;;;;;;;5013246;28;20037;-63
2023/10/09 05:02:54;;;;;;;36.42;17.98;;;;;;;;;;5000898;28;20033;-65
2023/10/09 05:06:20;;;;;;;36.20;17.02;;;;;;;;;;5013485;28;20098;-64
2023/10/09 05:08:21;;;;;;;32.03;14.95;;;;;;;;;;5014584;28;20050;-64
2023/10/09 05:18:59;;;;;;;26.58;13.13;;;;;;;;;;5033161;28;20121;-69
2023/10/09 05:29:24;;;;;;;36.65;19.20;;;;;;;;;;5032060;28;20033;-70
2023/10/09 05:32:15;;;;;;;63.35;39.60;;;;;;;;;;5032745;28;20048;-69
2023/10/09 05:37:33;;;;;;;16.75;10.60;;;;;;;;;;5032273;28;20025;-70
2023/10/09 05:42:42;;;;;;;15.82;9.80;;;;;;;;;;5030922;28;20038;-69
2023/10/09 05:47:53;;;;;;;18.15;10.70;;;;;;;;;;5030062;28;20041;-68
2023/10/09 05:55:48;;;;;;;13.13;8.00;;;;;;;;;;5031386;28;20057;-68
2023/10/09 06:03:48;;;;;;;14.88;7.63;;;;;;;;;;5031338;28;20042;-68
2023/10/09 06:06:33;;;;;;;12.88;8.15;;;;;;;;;;5031743;28;20125;-68
2023/10/09 06:11:49;;;;;;;18.23;10.45;;;;;;;;;;5013629;28;20041;-68
2023/10/09 06:24:18;;;;;;;13.88;8.90;;;;;;;;;;5013712;28;20048;-69
2023/10/09 06:29:38;;;;;;;12.57;8.75;;;;;;;;;;5030801;28;20044;-68
2023/10/09 06:34:51;;;;;;;19.17;11.30;;;;;;;;;;5030325;28;20045;-68
2023/10/09 06:45:09;;;;;;;16.42;8.88;;;;;;;;;;5030235;28;20045;-68
2023/10/09 06:47:41;;;;;;;13.98;8.65;;;;;;;;;;5030302;28;20068;-68
2023/10/09 06:55:48;;;;;;;15.80;10.50;;;;;;;;;;5029789;28;20124;-68
2023/10/09 06:58:23;;;;;;;15.25;9.82;;;;;;;;;;5030058;28;20041;-68
2023/10/09 07:03:36;;;;;;;12.60;8.48;;;;;;;;;;5012236;28;20538;-68
2023/10/09 07:06:23;;;;;;;11.90;8.18;;;;;;;;;;5029919;28;20063;-68
2023/10/09 07:09:15;;;;;;;12.73;8.20;;;;;;;;;;5029686;28;20128;-66
2023/10/09 07:14:07;;;;;;;14.90;10.00;;;;;;;;;;5012108;28;20037;-66
2023/10/09 07:16:38;;;;;;;13.48;10.27;;;;;;;;;;5029770;28;20037;-66
2023/10/09 07:19:19;;;;;;;17.52;10.90;;;;;;;;;;5029759;28;20037;-66
2023/10/09 07:21:53;;;;;;;17.00;11.35;;;;;;;;;;5029659;28;20083;-66
2023/10/09 07:24:24;;;;;;;17.90;11.32;;;;;;;;;;5029661;28;20045;-66
2023/10/09 07:26:53;;;;;;;15.10;10.23;;;;;;;;;;5030011;28;20034;-66
2023/10/09 07:29:21;;;;;;;15.95;10.55;;;;;;;;;;5030270;28;20045;-66
2023/10/09 07:31:56;;;;;;;16.10;10.40;;;;;;;;;;5030676;28;20042;-65
2023/10/09 07:34:40;;;;;;;15.07;9.95;;;;;;;;;;5030370;28;20048;-65
2023/10/09 07:37:05;;;;;;;15.70;10.38;;;;;;;;;;5030810;28;20048;-65
2023/10/09 07:39:34;;;;;;;18.45;11.23;;;;;;;;;;5012814;28;20042;-65
2023/10/09 07:42:26;;;;;;;14.55;11.25;;;;;;;;;;5030594;28;20482;-66
2023/10/09 07:44:56;;;;;;;25.50;16.98;;;;;;;;;;5030862;28;20041;-65
2023/10/09 07:47:45;;;;;;;21.45;13.90;;;;;;;;;;5030486;28;20060;-65
2023/10/09 07:50:20;;;;;;;10.18;7.93;;;;;;;;;;5030364;28;20090;-66
2023/10/09 07:52:46;;;;;;;12.27;8.70;;;;;;;;;;5012924;28;20404;-65
2023/10/09 07:55:26;;;;;;;12.82;8.75;;;;;;;;;;5030277;28;20041;-66
2023/10/09 07:57:52;;;;;;;10.63;6.67;;;;;;;;;;5030871;28;20041;-65
2023/10/09 08:00:36;;;;;;;10.18;7.00;;;;;;;;;;5030238;28;20029;-65
2023/10/09 08:03:02;;;;;;;9.82;6.35;;;;;;;;;;5030586;28;20124;-65
2023/10/09 08:05:33;;;;;;;7.68;5.45;;;;;;;;;;5029931;28;20562;-65
2023/10/09 08:08:17;;;;;;;;;;;;;;;;;;5033521;28;20034;-65
2023/10/09 08:16:20;;;;;;;8.70;5.07;;;;;;;;;;5033731;28;20041;-65
2023/10/09 08:18:45;;;;;;;9.25;5.93;;;;;;;;;;5015750;28;20034;-65
2023/10/09 08:23:48;;;;;;;7.25;6.18;;;;;;;;;;5033466;28;20053;-65
2023/10/09 08:26:14;;;;;;;6.05;5.00;;;;;;;;;;5033437;28;20052;-65
2023/10/09 08:28:39;;;;;;;7.28;6.10;;;;;;;;;;5016014;28;20034;-66
2023/10/09 08:33:57;;;;;;;3.20;2.90;;;;;;;;;;5027033;28;20042;-65
2023/10/09 08:36:51;;;;;;;4.55;3.17;;;;;;;;;;5016274;28;20037;-65
2023/10/09 08:39:25;;;;;;;3.38;2.95;;;;;;;;;;5027939;28;20045;-59
2023/10/09 08:41:57;;;;;;;3.30;3.00;;;;;;;;;;5033759;28;20563;-59
2023/10/09 08:44:25;;;;;;;2.75;2.55;;;;;;;;;;5033511;28;20423;-59
2023/10/09 08:46:50;;;;;;;3.85;2.78;;;;;;;;;;5033208;28;20056;-59
2023/10/09 08:49:16;;;;;;;3.28;2.60;;;;;;;;;;5033360;28;20487;-59
2023/10/09 08:51:42;;;;;;;3.10;2.47;;;;;;;;;;5033471;28;20030;-65
2023/10/09 08:54:11;;;;;;;2.70;2.50;;;;;;;;;;5032999;28;20544;-65
2023/10/09 08:56:39;;;;;;;2.50;2.30;;;;;;;;;;5033057;28;20392;-65
2023/10/09 08:59:05;;;;;;;2.58;2.03;;;;;;;;;;5033142;28;20043;-66
2023/10/09 09:01:32;;;;;;;2.17;1.90;;;;;;;;;;5033119;28;20037;-65
2023/10/09 09:03:59;;;;;;;2.25;2.05;;;;;;;;;;5032611;28;20049;-65
2023/10/09 09:06:25;;;;;;;3.63;1.88;;;;;;;;;;5033091;28;20078;-65
2023/10/09 09:08:59;;;;;;;2.03;1.88;;;;;;;;;;5032755;28;20053;-66
2023/10/09 09:11:25;;;;;;;3.35;2.33;;;;;;;;;;5032850;28;20178;-65
2023/10/09 09:13:53;;;;;;;4.18;2.80;;;;;;;;;;5014919;28;20566;-65
2023/10/09 09:16:22;;;;;;;1.88;1.73;;;;;;;;;;5032959;28;20378;-66
2023/10/09 09:19:13;;;;;;;2.08;1.95;;;;;;;;;;5014690;28;20478;-65
2023/10/09 09:21:38;;;;;;;;;;;;;;;;;;5033089;28;20048;-66
2023/10/09 09:24:15;;;;;;;2.35;2.15;;;;;;;;;;5032374;28;19910;-66
2023/10/09 09:26:47;;;;;;;2.22;2.03;;;;;;;;;;5030906;28;20390;-66
2023/10/09 09:29:19;;;;;;;4.15;3.83;;;;;;;;;;5032680;28;20044;-65
2023/10/09 09:31:57;;;;;;;3.22;2.88;;;;;;;;;;5032856;28;20041;-66
2023/10/09 09:34:25;;;;;;;1.70;1.60;;;;;;;;;;5032677;28;20045;-66
2023/10/09 09:36:54;;;;;;;2.50;2.30;;;;;;;;;;5031300;28;20376;-65
2023/10/09 09:39:26;;;;;;;1.27;1.27;;;;;;;;;;5030299;28;20061;-59
2023/10/09 09:41:53;;;;;;;1.40;1.30;;;;;;;;;;5030219;28;20128;-59
2023/10/09 09:44:21;;;;;;;1.25;1.15;;;;;;;;;;5030250;28;20049;-59
2023/10/09 09:46:48;;;;;;;1.05;1.02;;;;;;;;;;5030434;28;20057;-59
2023/10/09 09:49:16;;;;;;;1.02;1.02;;;;;;;;;;5030644;28;20038;-59
2023/10/09 09:51:46;;;;;;;1.08;0.98;;;;;;;;;;5031132;28;20038;-59
2023/10/09 09:54:15;;;;;;;2.47;1.05;;;;;;;;;;5032604;28;20052;-59
2023/10/09 09:56:44;;;;;;;1.70;1.60;;;;;;;;;;5032322;28;20454;-59
2023/10/09 09:59:21;;;;;;;1.20;1.10;;;;;;;;;;5031972;28;20431;-59
2023/10/09 10:01:56;;;;;;;2.63;1.35;;;;;;;;;;5032220;28;20135;-59
2023/10/09 10:04:24;;;;;;;1.58;1.42;;;;;;;;;;5032121;28;20463;-59
2023/10/09 10:06:50;;;;;;;2.13;1.90;;;;;;;;;;5032122;28;20042;-59
2023/10/09 10:09:38;;;;;;;1.90;1.80;;;;;;;;;;5031695;28;20066;-59
2023/10/09 10:12:09;;;;;;;1.52;1.42;;;;;;;;;;5030679;28;20046;-59
2023/10/09 10:14:50;;;;;;;2.95;2.22;;;;;;;;;;5030699;28;20509;-59
2023/10/09 10:17:18;;;;;;;2.22;1.90;;;;;;;;;;5030750;28;20117;-59
2023/10/09 10:22:47;;;;;;;2.03;1.52;;;;;;;;;;5030612;28;20120;-59
2023/10/09 10:25:32;;;;;;;2.30;2.10;;;;;;;;;;5030486;28;20128;-59
2023/10/09 10:28:22;;;;;;;2.33;1.60;;;;;;;;;;5030461;28;20070;-59
2023/10/09 10:30:50;;;;;;;2.35;1.85;;;;;;;;;;5029813;28;20038;-59
2023/10/09 10:33:16;;;;;;;2.58;2.38;;;;;;;;;;5030337;28;20498;-59
2023/10/09 10:38:34;;;;;;;18.15;16.65;;;;;;;;;;5030410;28;20033;-59
2023/10/09 10:41:13;;;;;;;2.42;2.22;;;;;;;;;;5030327;28;20045;-59
2023/10/09 10:43:48;;;;;;;1.67;1.40;;;;;;;;;;5030239;28;20045;-59
2023/10/09 10:46:23;;;;;;;2.78;1.80;;;;;;;;;;5030207;28;20140;-59
2023/10/09 10:48:59;;;;;;;1.80;1.70;;;;;;;;;;5012604;28;20037;-59
2023/10/09 10:51:39;;;;;;;5.10;3.83;;;;;;;;;;5012381;28;20055;-59
2023/10/09 10:56:51;;;;;;;2.60;2.15;;;;;;;;;;5030110;28;20083;-59
2023/10/09 10:59:24;;;;;;;2.33;1.80;;;;;;;;;;5012410;28;20033;-59
2023/10/09 11:01:53;;;;;;;3.30;2.60;;;;;;;;;;5030046;28;20048;-59
2023/10/09 11:04:38;;;;;;;4.22;3.03;;;;;;;;;;5029998;28;20052;-59
2023/10/09 11:07:12;;;;;;;8.25;3.30;;;;;;;;;;5029874;28;20376;-59
2023/10/09 11:09:58;;;;;;;4.38;3.30;;;;;;;;;;5029783;28;20053;-59
2023/10/09 11:12:23;;;;;;;4.43;2.70;;;;;;;;;;5029725;28;20037;-59
2023/10/09 11:15:05;;;;;;;5.45;3.35;;;;;;;;;;5029771;28;20497;-59
2023/10/09 11:17:38;;;;;;;3.08;1.88;;;;;;;;;;5030237;28;20379;-59
2023/10/09 11:20:26;;;;;;;2.40;2.10;;;;;;;;;;4993245;28;20038;-59
2023/10/09 11:25:37;;;;;;;2.28;2.08;;;;;;;;;;5011255;28;20046;-59
2023/10/09 11:28:27;;;;;;;1.48;1.38;;;;;;;;;;5011015;28;20391;-59
2023/10/09 11:30:55;;;;;;;1.40;1.30;;;;;;;;;;5010872;28;20514;-59
2023/10/09 11:33:21;;;;;;;2.50;2.30;;;;;;;;;;5011477;28;20038;-59
2023/10/09 11:35:59;;;;;;;1.77;1.67;;;;;;;;;;5011131;28;20041;-59
2023/10/09 11:38:26;;;;;;;1.50;1.40;;;;;;;;;;5010834;28;20467;-59
2023/10/09 11:43:51;;;;;;;1.55;1.45;;;;;;;;;;5014331;28;20037;-59
2023/10/09 11:46:36;;;;;;;1.90;1.40;;;;;;;;;;5014113;28;20053;-59
2023/10/09 11:54:45;;;;;;;1.85;1.75;;;;;;;;;;4981436;28;20042;-59
2023/10/09 11:57:10;;;;;;;1.70;1.60;;;;;;;;;;5014182;28;20030;-59
2023/10/09 11:59:38;;;;;;;3.00;2.70;;;;;;;;;;5014156;28;20038;-59
2023/10/09 12:02:11;;;;;;;1.77;1.67;;;;;;;;;;5014069;28;20030;-59
2023/10/09 12:04:37;;;;;;;3.58;2.60;;;;;;;;;;5014070;28;20038;-59
2023/10/09 12:07:07;;;;;;;3.35;2.53;;;;;;;;;;5014206;28;20129;-59
2023/10/09 12:09:34;;;;;;;5.38;3.92;;;;;;;;;;5027194;28;20167;-59
2023/10/09 12:12:02;;;;;;;2.47;2.03;;;;;;;;;;5033481;28;20033;-58
2023/10/09 12:14:33;;;;;;;2.08;1.58;;;;;;;;;;5034007;28;20040;-59
2023/10/09 12:16:58;;;;;;;;;;;;;;;;;;5034113;28;20457;-59
2023/10/09 12:19:23;;;;;;;4.05;2.95;;;;;;;;;;5046194;28;20004;-59
2023/10/09 12:21:49;;;;;;;1.85;1.60;;;;;;;;;;5053271;28;20041;-59
2023/10/09 12:24:18;;;;;;;1.75;1.60;;;;;;;;;;5053112;28;20037;-59
2023/10/09 12:26:45;;;;;;;2.75;1.85;;;;;;;;;;5052910;28;20482;-59
2023/10/09 12:29:11;;;;;;;3.25;1.95;;;;;;;;;;5052949;28;20044;-59
2023/10/09 12:31:36;;;;;;;5.10;3.40;;;;;;;;;;5052786;28;20371;-59
2023/10/09 12:34:02;;;;;;;5.47;3.08;;;;;;;;;;5052943;28;20037;-59
2023/10/09 12:36:28;;;;;;;3.63;2.20;;;;;;;;;;5035141;28;20409;-59
2023/10/09 12:38:58;;;;;;;4.40;2.05;;;;;;;;;;5052672;28;20048;-59
2023/10/09 12:41:27;;;;;;;;;;;;;;;;;;5053208;28;20041;-59
2023/10/09 12:43:53;;;;;;;1.50;1.38;;;;;;;;;;5002665;28;19967;-66
2023/10/09 12:46:22;;;;;;;1.65;1.55;;;;;;;;;;5051389;28;20426;-67
2023/10/09 12:48:54;;;;;;;1.95;1.52;;;;;;;;;;5052048;28;20047;-67
2023/10/09 12:51:20;;;;;;;2.40;2.03;;;;;;;;;;5034224;28;20101;-67
2023/10/09 12:53:48;;;;;;;31.70;16.45;;;;;;;;;;5052201;28;20470;-67
2023/10/09 12:56:15;;;;;;;7.82;5.20;;;;;;;;;;5052542;28;20116;-68
2023/10/09 12:58:52;;;;;;;3.63;2.85;;;;;;;;;;5052607;28;20052;-68
2023/10/09 13:01:19;;;;;;;5.97;4.13;;;;;;;;;;5032752;28;20045;-68
2023/10/09 13:03:44;;;;;;;5.18;4.57;;;;;;;;;;5032650;28;20407;-68
2023/10/09 13:06:13;;;;;;;4.70;4.40;;;;;;;;;;5031833;28;20030;-68
2023/10/09 13:08:40;;;;;;;3.42;3.22;;;;;;;;;;5032032;28;20081;-68
2023/10/09 13:11:16;;;;;;;2.47;2.28;;;;;;;;;;5031753;28;20049;-68
2023/10/09 13:13:51;;;;;;;1.52;1.42;;;;;;;;;;5031734;28;20162;-67
2023/10/09 13:16:24;;;;;;;4.25;3.63;;;;;;;;;;5031963;28;20440;-67
2023/10/09 13:18:50;;;;;;;7.72;5.03;;;;;;;;;;5032238;28;20030;-67
2023/10/09 13:21:19;;;;;;;3.28;2.78;;;;;;;;;;5032751;28;20364;-67
2023/10/09 13:23:46;;;;;;;5.53;4.13;;;;;;;;;;5011138;28;20037;-67
2023/10/09 13:26:18;;;;;;;7.43;4.53;;;;;;;;;;5021566;28;20044;-67
2023/10/09 13:28:48;;;;;;;2.80;2.60;;;;;;;;;;5028460;28;20038;-67
2023/10/09 13:31:14;;;;;;;4.18;3.78;;;;;;;;;;5028422;28;20042;-67
2023/10/09 13:33:40;;;;;;;4.45;4.05;;;;;;;;;;5028418;28;20045;-67
2023/10/09 13:36:15;;;;;;;6.15;4.63;;;;;;;;;;5027282;28;20419;-67
2023/10/09 13:38:43;;;;;;;1.80;1.70;;;;;;;;;;5010286;28;20436;-67
2023/10/09 13:41:12;;;;;;;1.90;1.77;;;;;;;;;;5027841;28;20434;-67
2023/10/09 13:43:42;;;;;;;24.38;12.23;;;;;;;;;;5010230;28;20034;-68
2023/10/09 13:46:08;;;;;;;4.40;2.90;;;;;;;;;;5007792;28;20448;-67
2023/10/09 13:48:43;;;;;;;3.13;2.65;;;;;;;;;;5026663;28;20370;-67
2023/10/09 13:51:23;;;;;;;3.60;2.67;;;;;;;;;;5026733;28;20136;-68
2023/10/09 13:53:48;;;;;;;7.65;4.65;;;;;;;;;;5026225;28;20046;-67
2023/10/09 13:56:18;;;;;;;5.40;4.15;;;;;;;;;;5026714;28;20034;-68
2023/10/09 13:58:44;;;;;;;7.13;5.40;;;;;;;;;;5027952;28;20078;-68
2023/10/09 14:01:09;;;;;;;4.15;3.65;;;;;;;;;;5023772;28;20670;-61
2023/10/09 14:03:35;;;;;;;2.90;2.60;;;;;;;;;;5026418;28;20359;-61
2023/10/09 14:06:10;;;;;;;4.35;3.88;;;;;;;;;;5027146;28;20047;-61
2023/10/09 14:08:41;;;;;;;3.75;3.35;;;;;;;;;;5026755;28;20107;-61
2023/10/09 14:11:13;;;;;;;4.07;3.40;;;;;;;;;;5027309;28;20064;-68
2023/10/09 14:13:38;;;;;;;3.17;2.88;;;;;;;;;;5025265;28;20060;-68
2023/10/09 14:16:04;;;;;;;2.30;2.10;;;;;;;;;;5023591;28;20045;-68
2023/10/09 14:18:29;;;;;;;3.03;2.40;;;;;;;;;;5027534;28;20562;-68
2023/10/09 14:20:56;;;;;;;2.67;2.40;;;;;;;;;;5024051;28;20046;-68
2023/10/09 14:23:22;;;;;;;2.80;2.60;;;;;;;;;;5027680;28;20046;-69
2023/10/09 14:25:49;;;;;;;3.50;3.20;;;;;;;;;;5027023;28;20538;-68
2023/10/09 14:28:18;;;;;;;5.22;4.72;;;;;;;;;;5026194;28;20433;-68
2023/10/09 14:30:48;;;;;;;59.83;46.40;;;;;;;;;;5078642;27;20130;-68
2023/10/09 14:33:15;;;;;;;4.72;4.28;;;;;;;;;;5086767;27;20049;-69
2023/10/09 14:35:41;;;;;;;75.75;30.27;;;;;;;;;;5075396;27;20016;-68
2023/10/09 14:38:13;;;;;;;167.75;71.88;;;;;;;;;;5082419;27;20575;-69
2023/10/09 14:40:41;;;;;;;18.65;11.68;;;;;;;;;;5131354;27;20054;-69
2023/10/09 14:43:18;;;;;;;68.00;31.38;;;;;;;;;;5113203;27;20054;-68
2023/10/09 14:45:48;;;;;;;70.63;31.27;;;;;;;;;;5131320;27;20050;-68
2023/10/09 14:48:17;;;;;;;32.33;15.80;;;;;;;;;;5131094;27;20563;-68
2023/10/09 14:50:47;;;;;;;15.27;8.60;;;;;;;;;;5131252;27;20821;-69
2023/10/09 14:53:13;;;;;;;47.97;24.80;;;;;;;;;;5131385;27;20031;-69
2023/10/09 14:55:38;;;;;;;54.00;33.63;;;;;;;;;;5130619;27;20047;-68
2023/10/09 14:58:05;;;;;;;58.22;35.88;;;;;;;;;;5112609;27;20110;-69
2023/10/09 15:00:33;;;;;;;44.03;26.70;;;;;;;;;;5112900;27;20031;-68
2023/10/09 15:02:59;;;;;;;18.98;12.40;;;;;;;;;;5130996;27;20027;-69
2023/10/09 15:05:24;;;;;;;18.02;10.25;;;;;;;;;;5130519;27;20039;-69
2023/10/09 15:07:50;;;;;;;33.83;22.25;;;;;;;;;;5130882;27;20039;-69
2023/10/09 15:10:15;;;;;;;22.75;19.10;;;;;;;;;;5130913;27;20055;-69
2023/10/09 15:12:42;;;;;;;41.38;31.00;;;;;;;;;;5131010;27;20066;-68
2023/10/09 15:15:14;;;;;;;39.67;25.95;;;;;;;;;;5129465;27;20515;-68
2023/10/09 15:17:43;;;;;;;29.33;18.80;;;;;;;;;;5111155;27;20031;-68
2023/10/09 15:20:16;;;;;;;55.08;36.35;;;;;;;;;;5129904;27;20035;-68
2023/10/09 15:22:42;;;;;;;23.48;18.50;;;;;;;;;;5111907;28;20548;-68
2023/10/09 15:25:09;;;;;;;23.10;18.77;;;;;;;;;;5074081;28;20033;-68
2023/10/09 15:27:35;;;;;;;81.18;46.53;;;;;;;;;;5006108;28;20077;-68
2023/10/09 15:30:00;;;;;;;14.80;9.65;;;;;;;;;;5006430;28;20076;-68
2023/10/09 15:32:25;;;;;;;11.05;8.63;;;;;;;;;;5006170;28;20129;-68
2023/10/09 15:34:58;;;;;;;9.52;7.13;;;;;;;;;;5005905;28;20042;-68
2023/10/09 15:37:23;;;;;;;13.95;6.47;;;;;;;;;;4988461;28;20041;-69
2023/10/09 15:39:49;;;;;;;14.35;8.63;;;;;;;;;;4988295;28;20603;-68
2023/10/09 15:42:16;;;;;;;22.15;13.73;;;;;;;;;;5006126;28;20053;-68
2023/10/09 15:44:42;;;;;;;21.23;14.10;;;;;;;;;;5005377;28;20052;-68
2023/10/09 15:47:08;;;;;;;16.50;12.25;;;;;;;;;;5005265;28;20054;-68
2023/10/09 15:49:34;;;;;;;12.18;9.07;;;;;;;;;;5005827;28;20431;-68
2023/10/09 15:52:01;;;;;;;16.92;9.77;;;;;;;;;;5005380;28;20038;-68
2023/10/09 15:54:27;;;;;;;42.50;20.35;;;;;;;;;;4987957;28;20091;-68
2023/10/09 15:56:54;;;;;;;63.00;26.15;;;;;;;;;;4987902;28;20030;-68
2023/10/09 15:59:20;;;;;;;22.70;13.98;;;;;;;;;;5005775;28;20042;-68
2023/10/09 16:01:45;;;;;;;17.13;12.05;;;;;;;;;;5005324;28;20098;-68
2023/10/09 16:04:10;;;;;;;15.23;8.13;;;;;;;;;;5005693;28;20077;-69
2023/10/09 16:06:39;;;;;;;18.00;10.95;;;;;;;;;;5005501;28;20086;-68
2023/10/09 16:09:05;;;;;;;32.88;13.85;;;;;;;;;;5011002;28;20045;-68
2023/10/09 16:11:33;;;;;;;118.75;88.47;;;;;;;;;;5007660;28;20061;-68
2023/10/09 16:13:59;;;;;;;41.10;30.65;;;;;;;;;;5025118;28;20040;-69
2023/10/09 16:16:28;;;;;;;47.50;33.83;;;;;;;;;;5024784;28;20037;-69
2023/10/09 16:18:55;;;;;;;21.42;16.25;;;;;;;;;;5026436;28;20041;-68
2023/10/09 16:21:21;;;;;;;11.38;7.70;;;;;;;;;;5026191;28;20046;-69
2023/10/09 16:23:49;;;;;;;98.88;52.83;;;;;;;;;;5026112;28;20033;-68
2023/10/09 16:26:16;;;;;;;467.27;265.13;;;;;;;;;;5008147;28;20110;-69
2023/10/09 16:28:42;;;;;;;66.93;42.03;;;;;;;;;;5028882;28;20041;-68
2023/10/09 16:31:13;;;;;;;22.45;13.57;;;;;;;;;;5029596;28;20040;-69
2023/10/09 16:33:39;;;;;;;12.60;8.75;;;;;;;;;;5012060;28;20050;-68
2023/10/09 16:36:04;;;;;;;33.08;17.25;;;;;;;;;;5029474;28;20044;-69
2023/10/09 16:38:30;;;;;;;207.50;107.55;;;;;;;;;;5029563;28;20114;-68
2023/10/09 16:40:55;;;;;;;299.95;144.30;;;;;;;;;;5029630;28;20046;-69
2023/10/09 16:43:25;;;;;;;79.18;39.60;;;;;;;;;;5028890;28;20036;-68
2023/10/09 16:45:51;;;;;;;121.13;53.77;;;;;;;;;;5028877;28;20067;-68
2023/10/09 16:48:16;;;;;;;90.97;38.28;;;;;;;;;;5011747;28;20793;-69
2023/10/09 16:50:46;;;;;;;90.88;45.20;;;;;;;;;;5029429;28;20052;-68
2023/10/09 16:53:12;;;;;;;168.57;87.13;;;;;;;;;;5029200;28;20037;-68
2023/10/09 16:55:43;;;;;;;170.70;89.82;;;;;;;;;;5028802;28;20444;-69